Sitio d'Abadia, Brazil
Current Conditions -  °F | °C
As of 11:00 PM on Friday 28 Nov 2014 (Local Time) from SBBR Reporting Station
Few Clouds Few Clouds  
Wind Chill: 70°   Ceiling: Unl
Heat Index: 70°   Visibility: 6mi
Dew Point: 63°   Wind: 3mph
Humidity: 78%   Direction: 230°SW
Pressure: 30.09"   Gusts: NA
Location:  14.81°S, 46.25°W
Report Text: SBBR 290100Z 23003KT 9999 FEW015 21/17 Q1019
Loading
Personal Weather Stations






























Interactive Weather Map New forecast layout! Learn more

10-Day Weather Forecast

Advertisements
Track Severe Weather on mobile